Time;durP1;ratioP1;P1;durP2;ratioP2;P2;SDS_P1;SDS_P2;PMS_P1;PMS_P2;Temp;Humidity;BMP_temperature;BMP_pressure;BME280_temperature;BME280_humidity;BME280_pressure;Samples;Min_cycle;Max_cycle;Signal;HPM_P1;HPM_P2
2022/11/13 00:02:25;;;;;;;16.58;12.73;;;7.30;99.90;;;;;;4796890;29;20533;-84
2022/11/13 00:04:51;;;;;;;18.13;12.57;;;5.60;99.90;;;;;;4796437;29;20062;-84
2022/11/13 00:07:17;;;;;;;16.63;12.93;;;5.70;99.90;;;;;;4789005;29;20054;-84
2022/11/13 00:09:42;;;;;;;16.48;12.48;;;6.80;99.90;;;;;;4810429;29;20058;-85
2022/11/13 00:12:08;;;;;;;17.50;11.80;;;5.60;99.90;;;;;;4796198;29;20103;-84
2022/11/13 00:14:37;;;;;;;18.88;13.20;;;5.60;99.90;;;;;;4782244;29;20116;-84
2022/11/13 00:17:05;;;;;;;16.30;12.43;;;5.60;99.90;;;;;;4793963;29;20556;-84
2022/11/13 00:19:30;;;;;;;18.92;13.07;;;5.70;99.90;;;;;;4781392;29;20077;-84
2022/11/13 00:21:59;;;;;;;17.30;12.57;;;5.50;99.90;;;;;;4797246;29;20065;-84
2022/11/13 00:24:25;;;;;;;17.77;13.02;;;5.60;99.90;;;;;;4795631;29;20058;-84
2022/11/13 00:26:51;;;;;;;17.27;13.18;;;5.70;99.90;;;;;;4797458;29;20507;-85
2022/11/13 00:29:17;;;;;;;17.48;12.75;;;5.70;99.90;;;;;;4797346;29;20651;-84
2022/11/13 00:31:43;;;;;;;18.40;13.02;;;5.80;99.90;;;;;;4799450;29;20050;-85
2022/11/13 00:34:11;;;;;;;17.08;13.15;;;5.50;99.90;;;;;;4795594;29;20062;-84
2022/11/13 00:36:37;;;;;;;19.02;13.02;;;5.50;99.90;;;;;;4813628;29;20134;-84
2022/11/13 00:39:03;;;;;;;17.10;13.02;;;5.60;99.90;;;;;;4800213;29;20504;-85
2022/11/13 00:41:32;;;;;;;19.52;13.45;;;5.60;99.90;;;;;;4798087;29;20598;-84
2022/11/13 00:44:02;;;;;;;20.42;13.52;;;5.70;99.90;;;;;;4810534;29;20050;-84
2022/11/13 00:46:29;;;;;;;17.17;12.30;;;7.40;99.90;;;;;;4797961;29;20066;-84
2022/11/13 00:48:55;;;;;;;19.95;14.10;;;5.70;99.90;;;;;;4795438;29;20051;-85
2022/11/13 00:51:24;;;;;;;18.33;12.77;;;5.50;99.90;;;;;;4797055;29;20057;-85
2022/11/13 00:53:49;;;;;;;19.80;13.88;;;5.50;99.90;;;;;;4798538;29;20054;-84
2022/11/13 00:56:15;;;;;;;18.77;13.82;;;5.60;99.90;;;;;;4797337;29;20067;-84
2022/11/13 00:58:41;;;;;;;21.30;15.27;;;5.70;99.90;;;;;;4814293;29;20050;-85
2022/11/13 01:01:14;;;;;;;19.38;12.75;;;5.60;99.90;;;;;;4808585;29;20054;-86
2022/11/13 01:03:40;;;;;;;17.00;13.25;;;5.50;99.90;;;;;;4808748;29;20146;-85
2022/11/13 01:06:14;;;;;;;22.55;13.43;;;5.80;99.90;;;;;;4798413;29;20078;-84
2022/11/13 01:08:40;;;;;;;19.50;13.75;;;5.60;99.90;;;;;;4812933;29;20050;-84
2022/11/13 01:11:17;;;;;;;18.35;13.95;;;5.60;99.90;;;;;;4818016;29;20046;-85
2022/11/13 01:13:48;;;;;;;23.60;14.50;;;5.60;99.90;;;;;;4798747;29;20100;-85
2022/11/13 01:16:16;;;;;;;18.85;14.68;;;5.70;99.90;;;;;;4812835;29;20065;-84
2022/11/13 01:18:42;;;;;;;19.73;15.35;;;4.50;99.90;;;;;;4830511;29;20054;-85
2022/11/13 01:21:13;;;;;;;19.63;14.30;;;6.80;99.90;;;;;;4813059;29;20065;-85
2022/11/13 01:23:39;;;;;;;21.67;14.43;;;5.90;99.90;;;;;;4799306;29;20127;-84
2022/11/13 01:26:18;;;;;;;18.40;13.18;;;5.80;99.90;;;;;;4815838;29;20062;-84
2022/11/13 01:28:45;;;;;;;16.92;13.95;;;5.70;99.90;;;;;;4797822;29;20046;-84
2022/11/13 01:31:15;;;;;;;19.05;14.98;;;5.70;99.90;;;;;;4817835;29;20137;-84
2022/11/13 01:33:42;;;;;;;18.63;13.57;;;5.60;99.90;;;;;;4815324;29;20054;-84
2022/11/13 01:36:12;;;;;;;17.52;13.60;;;5.70;99.90;;;;;;4813837;29;20066;-84
2022/11/13 01:38:38;;;;;;;18.05;13.02;;;5.70;99.90;;;;;;4801625;29;20087;-84
2022/11/13 01:41:05;;;;;;;19.13;13.68;;;5.60;99.90;;;;;;4797889;29;20058;-83
2022/11/13 01:43:36;;;;;;;18.75;14.63;;;5.70;99.90;;;;;;4814811;29;20137;-83
2022/11/13 01:46:11;;;;;;;19.40;14.93;;;5.70;99.90;;;;;;4813315;29;20054;-85
2022/11/13 01:48:38;;;;;;;17.25;12.82;;;5.70;99.90;;;;;;4814308;29;20107;-83
2022/11/13 01:51:12;;;;;;;16.67;13.23;;;5.70;99.90;;;;;;4815350;29;20080;-84
2022/11/13 01:53:42;;;;;;;17.23;13.13;;;6.60;99.90;;;;;;4799950;29;20057;-83
2022/11/13 01:56:08;;;;;;;19.10;14.60;;;6.70;99.90;;;;;;4816027;29;20042;-84
2022/11/13 01:58:34;;;;;;;18.02;14.00;;;4.90;99.90;;;;;;4814106;29;20058;-84
2022/11/13 02:01:00;;;;;;;19.20;14.40;;;5.60;99.90;;;;;;4800001;29;20084;-84
2022/11/13 02:03:26;;;;;;;18.17;12.68;;;7.30;99.90;;;;;;4802197;29;20061;-83
2022/11/13 02:05:53;;;;;;;16.15;13.27;;;5.60;99.90;;;;;;4799274;29;20073;-84
2022/11/13 02:08:19;;;;;;;17.38;12.98;;;6.00;99.90;;;;;;4813077;29;20082;-83
2022/11/13 02:10:44;;;;;;;16.05;12.95;;;5.60;99.90;;;;;;4787404;29;20149;-84
2022/11/13 02:13:11;;;;;;;17.92;13.40;;;6.70;99.90;;;;;;4798407;29;20066;-84
2022/11/13 02:15:38;;;;;;;18.33;13.90;;;5.60;99.90;;;;;;4815619;29;20046;-83
2022/11/13 02:18:05;;;;;;;20.38;13.50;;;5.70;99.90;;;;;;4807094;29;20060;-84
2022/11/13 02:20:52;;;;;;;19.08;12.50;;;5.50;99.90;;;;;;4799756;29;20062;-84
2022/11/13 02:23:42;;;;;;;17.23;13.15;;;5.70;99.90;;;;;;4799952;29;20066;-84
2022/11/13 02:26:09;;;;;;;16.27;12.25;;;6.10;99.90;;;;;;4799821;29;20094;-84
2022/11/13 02:28:35;;;;;;;16.73;12.35;;;5.50;99.90;;;;;;4786619;29;20058;-84
2022/11/13 02:31:12;;;;;;;18.50;14.30;;;5.50;99.90;;;;;;4784570;29;20400;-85
2022/11/13 02:33:38;;;;;;;17.08;13.15;;;5.60;99.90;;;;;;4793840;29;20046;-85
2022/11/13 02:36:05;;;;;;;15.30;11.85;;;6.10;99.90;;;;;;4800364;29;20118;-84
2022/11/13 02:38:36;;;;;;;16.80;13.13;;;5.50;99.90;;;;;;4796675;29;20062;-84
2022/11/13 02:41:02;;;;;;;19.17;13.05;;;5.50;99.90;;;;;;4797226;29;20911;-84
2022/11/13 02:43:28;;;;;;;15.75;12.30;;;5.50;99.90;;;;;;4785347;29;20054;-85
2022/11/13 02:45:53;;;;;;;15.93;11.95;;;5.50;99.90;;;;;;4799784;29;20062;-85
2022/11/13 02:48:19;;;;;;;15.82;12.02;;;5.80;99.90;;;;;;4799359;29;20050;-84
2022/11/13 02:50:45;;;;;;;15.65;12.05;;;6.70;99.90;;;;;;4813270;29;20100;-83
2022/11/13 02:53:11;;;;;;;14.70;11.52;;;6.10;99.90;;;;;;4799834;29;20101;-84
2022/11/13 02:55:37;;;;;;;17.27;12.30;;;6.60;99.90;;;;;;4799732;29;20505;-84
2022/11/13 02:58:03;;;;;;;17.45;12.18;;;5.50;99.90;;;;;;4785419;29;20058;-85
2022/11/13 03:00:28;;;;;;;12.65;11.02;;;5.50;99.90;;;;;;4812504;29;20046;-84
2022/11/13 03:02:54;;;;;;;15.18;12.23;;;5.70;99.90;;;;;;4785524;29;20596;-84
2022/11/13 03:05:21;;;;;;;14.80;11.60;;;5.60;99.90;;;;;;4784329;29;20054;-84
2022/11/13 03:07:47;;;;;;;15.07;11.70;;;6.10;99.90;;;;;;4812244;29;20136;-84
2022/11/13 03:10:12;;;;;;;15.65;11.73;;;6.70;99.90;;;;;;4831507;29;20133;-84
2022/11/13 03:12:39;;;;;;;15.77;11.50;;;6.70;99.90;;;;;;4783064;29;20062;-84
2022/11/13 03:15:07;;;;;;;15.07;11.82;;;6.50;99.90;;;;;;4814720;29;20058;-84
2022/11/13 03:17:35;;;;;;;16.70;12.38;;;5.60;99.90;;;;;;4797014;29;20086;-84
2022/11/13 03:20:02;;;;;;;16.52;12.00;;;5.70;99.90;;;;;;4782424;29;20055;-84
2022/11/13 03:22:28;;;;;;;16.25;12.85;;;5.60;99.90;;;;;;4813125;29;20061;-84
2022/11/13 03:24:54;;;;;;;17.75;11.50;;;7.00;99.90;;;;;;4799995;29;20062;-83
2022/11/13 03:27:20;;;;;;;15.13;12.18;;;5.60;99.90;;;;;;4782174;29;20062;-83
2022/11/13 03:29:46;;;;;;;15.75;12.45;;;5.70;99.90;;;;;;4798433;29;20501;-83
2022/11/13 03:32:12;;;;;;;16.00;12.27;;;5.70;99.90;;;;;;4789663;29;20065;-83
2022/11/13 03:34:38;;;;;;;15.02;11.93;;;5.60;99.90;;;;;;4795526;29;20054;-83
2022/11/13 03:37:03;;;;;;;14.95;11.88;;;5.70;99.90;;;;;;4792789;29;20404;-83
2022/11/13 03:39:29;;;;;;;14.63;11.77;;;5.70;99.90;;;;;;4794901;29;20047;-83
2022/11/13 03:41:55;;;;;;;16.10;11.93;;;5.70;99.90;;;;;;4795663;29;20141;-84
2022/11/13 03:44:21;;;;;;;15.35;11.68;;;5.80;99.90;;;;;;4798223;29;20046;-84
2022/11/13 03:46:46;;;;;;;16.88;11.93;;;5.90;99.90;;;;;;4809043;29;20058;-83
2022/11/13 03:49:12;;;;;;;16.65;12.77;;;5.70;99.90;;;;;;4768058;29;20058;-83
2022/11/13 03:51:38;;;;;;;14.95;11.00;;;5.80;99.90;;;;;;4797733;29;20097;-84
2022/11/13 03:54:04;;;;;;;20.83;12.88;;;6.90;99.90;;;;;;4813463;29;20082;-83
2022/11/13 03:56:29;;;;;;;17.15;11.85;;;5.70;99.90;;;;;;4810637;29;20057;-83
2022/11/13 03:58:55;;;;;;;17.38;12.20;;;5.80;99.90;;;;;;4811994;29;20050;-84
2022/11/13 04:01:21;;;;;;;15.45;11.52;;;5.80;99.90;;;;;;4794892;29;20131;-83
2022/11/13 04:03:47;;;;;;;14.98;10.93;;;5.80;99.90;;;;;;4798164;29;20141;-84
2022/11/13 04:06:13;;;;;;;14.20;11.82;;;6.90;99.90;;;;;;4795694;29;20054;-83
2022/11/13 04:08:39;;;;;;;15.05;10.50;;;5.90;99.90;;;;;;4810749;29;20073;-85
2022/11/13 04:11:10;;;;;;;15.43;11.23;;;5.80;99.90;;;;;;4799246;29;20622;-84
2022/11/13 04:13:36;;;;;;;18.27;11.98;;;5.90;99.90;;;;;;4794074;29;20046;-84
2022/11/13 04:16:03;;;;;;;16.83;13.02;;;5.70;99.90;;;;;;4810453;29;20066;-83
2022/11/13 04:18:29;;;;;;;16.15;11.50;;;5.90;99.90;;;;;;4809951;29;20093;-83
2022/11/13 04:21:04;;;;;;;17.88;11.95;;;5.90;99.90;;;;;;4802045;29;20149;-84
2022/11/13 04:23:30;;;;;;;13.43;11.38;;;5.90;99.90;;;;;;4791988;29;20054;-83
2022/11/13 04:25:56;;;;;;;14.50;11.40;;;5.90;99.90;;;;;;4780399;29;20050;-84
2022/11/13 04:28:22;;;;;;;16.13;12.30;;;6.00;99.90;;;;;;4810154;29;20050;-84
2022/11/13 04:30:49;;;;;;;15.40;12.05;;;7.50;99.90;;;;;;4797886;29;20054;-84
2022/11/13 04:33:14;;;;;;;12.82;10.75;;;5.90;99.90;;;;;;4809784;29;20485;-84
2022/11/13 04:35:44;;;;;;;16.30;11.55;;;6.00;99.90;;;;;;4784350;29;20046;-84
2022/11/13 04:38:11;;;;;;;14.95;10.63;;;6.00;99.90;;;;;;4783431;29;20272;-83
2022/11/13 04:40:38;;;;;;;14.00;11.52;;;5.90;99.90;;;;;;4809112;29;20069;-83
2022/11/13 04:43:03;;;;;;;14.73;11.07;;;6.00;99.90;;;;;;4805939;29;20054;-83
2022/11/13 04:45:29;;;;;;;15.20;11.48;;;6.00;99.90;;;;;;4795816;29;20416;-84
2022/11/13 04:47:55;;;;;;;16.30;11.15;;;5.90;99.90;;;;;;4797155;29;20438;-84
2022/11/13 04:50:21;;;;;;;14.13;11.32;;;5.90;99.90;;;;;;4793679;29;20118;-84
2022/11/13 04:52:46;;;;;;;15.05;10.65;;;5.90;99.90;;;;;;4797248;29;20058;-84
2022/11/13 04:55:13;;;;;;;14.07;11.27;;;5.80;99.90;;;;;;4812851;29;20141;-84
2022/11/13 04:57:39;;;;;;;15.88;10.90;;;6.70;99.90;;;;;;4828624;29;20141;-84
2022/11/13 05:00:16;;;;;;;15.00;11.05;;;7.30;99.90;;;;;;4829578;29;20066;-84
2022/11/13 05:02:42;;;;;;;15.60;11.30;;;5.80;99.90;;;;;;4796523;29;20061;-84
2022/11/13 05:05:08;;;;;;;13.15;9.80;;;5.70;99.90;;;;;;4803457;29;20815;-85
2022/11/13 05:07:33;;;;;;;13.30;10.15;;;6.70;99.90;;;;;;4784292;29;20110;-84
2022/11/13 05:09:59;;;;;;;13.43;10.10;;;6.60;99.90;;;;;;4795573;29;20054;-85
2022/11/13 05:12:25;;;;;;;13.77;10.23;;;5.70;99.90;;;;;;4796834;29;20493;-84
2022/11/13 05:14:51;;;;;;;14.52;10.52;;;5.70;99.90;;;;;;4796075;29;20468;-84
2022/11/13 05:17:16;;;;;;;13.40;10.07;;;5.70;99.90;;;;;;4797549;29;20054;-84
2022/11/13 05:19:42;;;;;;;15.40;12.05;;;5.80;99.90;;;;;;4782618;29;20507;-84
2022/11/13 05:22:08;;;;;;;15.13;10.60;;;5.80;99.90;;;;;;4777575;29;20065;-85
2022/11/13 05:24:37;;;;;;;16.38;11.45;;;5.70;99.90;;;;;;4808926;29;20137;-85
2022/11/13 05:27:02;;;;;;;14.82;11.25;;;5.70;99.90;;;;;;4800214;29;20132;-85
2022/11/13 05:29:28;;;;;;;17.30;11.95;;;5.70;99.90;;;;;;4811048;29;20059;-85
2022/11/13 05:31:54;;;;;;;15.05;11.30;;;5.70;99.90;;;;;;4796344;29;20146;-84
2022/11/13 05:34:20;;;;;;;13.40;11.23;;;5.70;99.90;;;;;;4797185;29;20516;-84
2022/11/13 05:36:45;;;;;;;14.95;11.30;;;5.70;99.90;;;;;;4797643;29;20058;-84
2022/11/13 05:39:11;;;;;;;15.45;12.02;;;5.70;99.90;;;;;;4783194;29;20437;-84
2022/11/13 05:41:37;;;;;;;14.82;11.25;;;6.90;99.90;;;;;;4795657;29;20054;-84
2022/11/13 05:44:02;;;;;;;12.95;10.30;;;6.50;99.90;;;;;;4797496;29;20046;-85
2022/11/13 05:46:29;;;;;;;16.25;11.52;;;5.70;99.90;;;;;;4781658;29;20427;-84
2022/11/13 05:48:57;;;;;;;15.63;12.02;;;5.70;99.90;;;;;;4816560;29;20524;-84
2022/11/13 05:51:28;;;;;;;13.13;10.55;;;6.40;99.90;;;;;;4814800;29;20257;-84
2022/11/13 05:53:55;;;;;;;15.90;10.98;;;6.00;99.90;;;;;;4815310;29;20101;-84
2022/11/13 05:56:27;;;;;;;14.40;10.90;;;5.70;99.90;;;;;;4799492;29;20058;-84
2022/11/13 05:58:53;;;;;;;14.70;11.10;;;5.70;99.90;;;;;;4800977;29;20057;-84
2022/11/13 06:01:32;;;;;;;15.48;11.57;;;7.30;99.90;;;;;;4796330;29;20061;-84
2022/11/13 06:03:59;;;;;;;17.45;12.20;;;5.60;99.90;;;;;;4811574;29;20058;-84
2022/11/13 06:06:27;;;;;;;15.30;11.18;;;5.70;99.90;;;;;;4798227;29;21343;-84
2022/11/13 06:08:54;;;;;;;15.63;10.52;;;5.80;99.90;;;;;;4798201;29;20054;-83
2022/11/13 06:11:23;;;;;;;14.55;11.82;;;5.70;99.90;;;;;;4796859;29;20050;-85
2022/11/13 06:13:50;;;;;;;15.25;11.27;;;5.90;99.90;;;;;;4810228;29;20090;-84
2022/11/13 06:16:18;;;;;;;15.77;12.18;;;6.30;99.90;;;;;;4792571;29;20063;-83
2022/11/13 06:18:45;;;;;;;15.95;11.18;;;6.10;99.90;;;;;;4812259;29;20062;-83
2022/11/13 06:21:14;;;;;;;18.73;11.35;;;5.60;99.90;;;;;;4797836;29;20502;-84
2022/11/13 06:23:40;;;;;;;14.27;11.20;;;5.70;99.90;;;;;;4811881;29;20078;-83
2022/11/13 06:26:16;;;;;;;15.82;11.55;;;5.80;99.90;;;;;;4813003;29;20054;-83
2022/11/13 06:28:42;;;;;;;16.08;12.10;;;5.70;99.90;;;;;;4798363;29;20046;-83
2022/11/13 06:31:10;;;;;;;15.45;11.73;;;5.60;99.90;;;;;;4783154;29;20058;-82
2022/11/13 06:33:37;;;;;;;14.27;11.70;;;5.60;99.90;;;;;;4796041;29;20073;-83
2022/11/13 06:36:06;;;;;;;19.08;12.05;;;5.60;99.90;;;;;;4814063;29;20084;-83
2022/11/13 06:38:34;;;;;;;15.55;11.70;;;5.60;99.90;;;;;;4797177;29;20104;-84
2022/11/13 06:41:00;;;;;;;15.68;11.90;;;6.50;99.90;;;;;;4798197;29;20068;-84
2022/11/13 06:43:27;;;;;;;17.80;12.48;;;5.60;99.90;;;;;;4811137;29;20126;-85
2022/11/13 06:45:56;;;;;;;18.17;12.30;;;5.70;99.90;;;;;;4798954;29;20062;-85
2022/11/13 06:48:24;;;;;;;17.33;11.35;;;5.60;99.90;;;;;;4801798;29;20050;-85
2022/11/13 06:50:51;;;;;;;15.50;12.43;;;4.80;99.90;;;;;;4813411;29;20073;-85
2022/11/13 06:53:17;;;;;;;16.58;12.55;;;5.70;99.90;;;;;;4802032;29;20060;-85
2022/11/13 06:55:44;;;;;;;15.80;12.75;;;6.70;99.90;;;;;;4805737;29;20051;-85
2022/11/13 06:58:10;;;;;;;16.98;11.60;;;5.40;99.90;;;;;;4795125;29;20058;-85
2022/11/13 07:00:36;;;;;;;17.50;11.88;;;5.70;99.90;;;;;;4796220;29;20070;-84
2022/11/13 07:03:01;;;;;;;14.43;12.05;;;6.30;99.90;;;;;;4787224;29;20489;-85
2022/11/13 07:05:27;;;;;;;14.85;12.07;;;5.60;99.90;;;;;;4799405;29;20086;-86
2022/11/13 07:07:55;;;;;;;17.15;12.85;;;5.70;99.90;;;;;;4799448;29;20066;-85
2022/11/13 07:10:21;;;;;;;14.32;11.05;;;5.60;99.90;;;;;;4802316;29;20074;-85
2022/11/13 07:12:47;;;;;;;16.38;12.77;;;5.90;99.90;;;;;;4785239;29;20059;-84
2022/11/13 07:15:15;;;;;;;36.03;28.80;;;6.90;99.90;;;;;;4812361;29;20107;-85
2022/11/13 07:17:41;;;;;;;34.33;26.40;;;5.60;99.90;;;;;;4814350;29;20050;-84
2022/11/13 07:20:07;;;;;;;23.92;17.55;;;6.80;99.90;;;;;;4799246;29;20046;-84
2022/11/13 07:22:33;;;;;;;18.58;14.50;;;5.60;99.90;;;;;;4811666;29;20498;-82
2022/11/13 07:24:58;;;;;;;17.58;13.07;;;5.70;99.90;;;;;;4795516;29;20066;-84
2022/11/13 07:27:32;;;;;;;16.83;12.68;;;4.40;99.90;;;;;;4815469;29;20137;-85
2022/11/13 07:29:58;;;;;;;17.75;13.70;;;6.00;99.90;;;;;;4805390;29;20046;-84
2022/11/13 07:32:24;;;;;;;21.00;13.30;;;4.90;99.90;;;;;;4802350;29;20046;-84
2022/11/13 07:34:50;;;;;;;18.65;13.35;;;5.80;99.90;;;;;;4784156;29;20137;-85
2022/11/13 07:37:16;;;;;;;16.48;13.00;;;6.10;99.90;;;;;;4795995;29;20054;-83
2022/11/13 07:39:42;;;;;;;17.25;12.82;;;5.70;99.90;;;;;;4811174;29;20497;-83
2022/11/13 07:42:07;;;;;;;17.05;13.55;;;5.70;99.90;;;;;;4796771;29;20050;-83
2022/11/13 07:44:33;;;;;;;18.20;14.02;;;6.20;99.90;;;;;;4796477;29;20413;-82
2022/11/13 07:46:59;;;;;;;18.15;13.85;;;5.80;99.90;;;;;;4796140;29;20485;-83
2022/11/13 07:49:25;;;;;;;18.02;13.07;;;5.90;99.90;;;;;;4809870;29;20078;-83
2022/11/13 07:51:51;;;;;;;18.80;14.52;;;6.00;99.90;;;;;;4800255;29;20241;-84
2022/11/13 07:54:17;;;;;;;18.08;13.90;;;5.90;99.90;;;;;;4809602;29;20147;-83
2022/11/13 07:56:46;;;;;;;19.27;13.55;;;5.90;99.90;;;;;;4790362;29;20445;-84
2022/11/13 07:59:12;;;;;;;17.25;12.50;;;6.10;99.90;;;;;;4789943;29;20054;-84
2022/11/13 08:01:38;;;;;;;17.60;13.02;;;6.10;99.90;;;;;;4791254;29;20595;-84
2022/11/13 08:04:03;;;;;;;19.10;14.32;;;6.10;99.90;;;;;;4792537;29;20054;-84
2022/11/13 08:06:29;;;;;;;18.40;13.18;;;7.70;99.90;;;;;;4793535;29;20105;-85
2022/11/13 08:08:55;;;;;;;18.30;14.55;;;6.20;99.90;;;;;;4789955;29;20045;-84
2022/11/13 08:11:23;;;;;;;16.83;13.20;;;7.00;99.90;;;;;;4791123;29;20054;-83
2022/11/13 08:13:50;;;;;;;19.23;14.25;;;6.30;99.90;;;;;;4806234;29;20546;-84
2022/11/13 08:16:16;;;;;;;16.80;13.02;;;6.30;99.90;;;;;;4806143;29;20058;-84
2022/11/13 08:18:42;;;;;;;18.42;13.15;;;6.50;99.90;;;;;;4805951;29;20152;-83
2022/11/13 08:21:08;;;;;;;19.67;13.75;;;6.40;99.90;;;;;;4804752;29;20241;-84
2022/11/13 08:23:33;;;;;;;20.50;16.27;;;5.80;99.90;;;;;;4805560;29;20066;-83
2022/11/13 08:26:03;;;;;;;20.45;15.05;;;6.70;99.90;;;;;;4804891;29;20066;-83
2022/11/13 08:28:29;;;;;;;19.98;14.98;;;7.00;99.90;;;;;;4804651;29;20046;-85
2022/11/13 08:30:55;;;;;;;20.85;16.90;;;7.50;99.90;;;;;;4793626;29;20057;-86
2022/11/13 08:33:21;;;;;;;19.30;15.98;;;8.00;99.90;;;;;;4800043;29;20081;-85
2022/11/13 08:35:58;;;;;;;22.73;18.50;;;8.40;99.90;;;;;;4780319;29;20070;-85
2022/11/13 08:38:24;;;;;;;24.15;18.42;;;9.10;99.90;;;;;;4794424;29;20062;-84
2022/11/13 08:40:51;;;;;;;20.83;16.60;;;9.70;99.90;;;;;;4793339;29;20086;-84
2022/11/13 08:43:18;;;;;;;20.00;15.57;;;9.80;99.90;;;;;;4794300;29;20046;-85
2022/11/13 08:45:47;;;;;;;16.52;13.82;;;9.70;99.90;;;;;;4780910;29;20043;-83
2022/11/13 08:48:13;;;;;;;17.50;14.07;;;9.50;99.90;;;;;;4797888;29;20046;-84
2022/11/13 08:50:39;;;;;;;17.65;13.82;;;9.40;99.90;;;;;;4794068;29;21074;-82
2022/11/13 08:53:05;;;;;;;17.90;14.40;;;9.30;99.90;;;;;;4798399;29;20058;-84
2022/11/13 08:55:34;;;;;;;18.75;13.75;;;9.20;99.90;;;;;;4795301;29;20909;-84
2022/11/13 08:58:03;;;;;;;18.50;14.70;;;9.20;99.90;;;;;;4794749;29;20050;-84
2022/11/13 09:00:33;;;;;;;16.90;13.55;;;9.10;99.90;;;;;;4798009;29;20054;-84
2022/11/13 09:03:00;;;;;;;15.35;12.55;;;9.70;99.90;;;;;;4811619;29;20054;-84
2022/11/13 09:05:26;;;;;;;17.15;12.57;;;8.80;99.90;;;;;;4812344;29;20059;-84
2022/11/13 09:07:57;;;;;;;15.82;13.35;;;9.00;99.90;;;;;;4805606;29;20110;-85
2022/11/13 09:10:23;;;;;;;16.33;13.38;;;9.00;99.90;;;;;;4805263;29;20073;-85
2022/11/13 09:12:54;;;;;;;16.90;12.95;;;9.00;99.90;;;;;;4811410;29;20051;-85
2022/11/13 09:15:20;;;;;;;15.30;12.32;;;9.00;99.90;;;;;;4795051;29;20130;-85
2022/11/13 09:17:45;;;;;;;15.10;11.80;;;8.10;99.90;;;;;;4792776;29;20070;-85
2022/11/13 09:20:11;;;;;;;14.65;12.50;;;9.60;99.90;;;;;;4783019;29;20056;-85
2022/11/13 09:22:37;;;;;;;15.35;11.65;;;9.50;99.90;;;;;;4782449;29;20641;-85
2022/11/13 09:25:03;;;;;;;16.23;12.60;;;10.00;99.90;;;;;;4800362;29;20054;-85
2022/11/13 09:27:31;;;;;;;13.95;11.38;;;9.20;99.90;;;;;;4801027;29;20062;-84
2022/11/13 09:29:57;;;;;;;16.38;12.02;;;9.30;99.90;;;;;;4793561;29;20061;-86
2022/11/13 09:32:23;;;;;;;14.77;11.57;;;9.40;99.90;;;;;;4800834;29;20054;-84
2022/11/13 09:34:49;;;;;;;15.88;13.13;;;9.50;99.90;;;;;;4795188;29;20054;-84
2022/11/13 09:37:15;;;;;;;12.80;11.15;;;10.10;99.90;;;;;;4800194;29;20067;-86
2022/11/13 09:39:41;;;;;;;15.75;11.80;;;10.20;99.90;;;;;;4815159;29;20058;-85
2022/11/13 09:42:07;;;;;;;13.23;11.65;;;;;;;;;;4798532;29;20056;-85
2022/11/13 09:44:54;;;;;;;15.43;12.43;;;11.60;99.90;;;;;;4802685;29;20068;-85
2022/11/13 09:47:32;;;;;;;12.90;11.18;;;12.90;99.90;;;;;;4816668;29;20058;-85
2022/11/13 09:50:09;;;;;;;11.60;10.40;;;14.20;99.90;;;;;;4826428;29;20100;-86
2022/11/13 09:52:43;;;;;;;12.02;9.65;;;14.60;99.90;;;;;;4826477;29;20114;-85
2022/11/13 09:55:18;;;;;;;11.02;9.93;;;14.50;99.90;;;;;;4787753;29;20642;-86
2022/11/13 09:57:47;;;;;;;11.23;9.10;;;14.20;99.90;;;;;;4797913;29;20062;-86
2022/11/13 10:00:19;;;;;;;9.32;7.97;;;13.70;99.90;;;;;;4799131;29;20122;-85
2022/11/13 10:03:16;;;;;;;10.80;9.27;;;13.40;99.90;;;;;;4824412;29;20050;-85
2022/11/13 10:05:55;;;;;;;12.05;8.82;;;11.70;99.90;;;;;;4814647;29;20050;-85
2022/11/13 10:08:28;;;;;;;9.43;8.10;;;12.80;99.90;;;;;;4815431;29;20055;-84
2022/11/13 10:11:23;;;;;;;9.68;8.20;;;12.70;99.90;;;;;;4813705;29;20054;-86
2022/11/13 10:14:01;;;;;;;9.88;8.30;;;12.50;99.90;;;;;;4800081;29;20073;-87
2022/11/13 10:17:16;;;;;;;10.43;8.27;;;12.40;99.90;;;;;;4814311;29;20050;-85
2022/11/13 10:19:54;;;;;;;9.65;8.23;;;12.40;99.90;;;;;;4796959;29;20043;-87
2022/11/13 10:23:10;;;;;;;9.82;8.70;;;11.80;99.90;;;;;;4800761;29;20076;-86
2022/11/13 10:25:37;;;;;;;9.85;8.15;;;12.60;99.90;;;;;;4791380;29;20557;-86
2022/11/13 10:28:13;;;;;;;10.43;8.70;;;13.00;99.90;;;;;;4798710;29;20069;-85
2022/11/13 10:30:40;;;;;;;11.88;7.82;;;12.90;99.90;;;;;;4814254;29;20042;-85
2022/11/13 10:33:08;;;;;;;8.82;7.53;;;12.20;99.90;;;;;;4798112;29;20469;-85
2022/11/13 10:35:37;;;;;;;9.80;7.97;;;13.00;99.90;;;;;;4798531;29;20058;-84
2022/11/13 10:38:24;;;;;;;9.82;8.02;;;12.80;99.90;;;;;;4800324;29;20619;-84
2022/11/13 10:41:21;;;;;;;10.57;7.95;;;13.10;99.90;;;;;;4800894;29;20058;-84
2022/11/13 10:43:56;;;;;;;8.65;7.50;;;13.30;99.90;;;;;;4801039;29;20050;-85
2022/11/13 10:46:28;;;;;;;10.50;7.75;;;13.30;99.90;;;;;;4818593;29;20153;-85
2022/11/13 10:49:09;;;;;;;8.45;7.03;;;13.00;99.90;;;;;;4801699;29;20450;-85
2022/11/13 10:51:35;;;;;;;9.32;7.38;;;12.90;99.90;;;;;;4804820;29;20103;-85
2022/11/13 10:54:25;;;;;;;9.23;7.95;;;12.60;99.90;;;;;;4799085;29;20058;-84
2022/11/13 10:57:03;;;;;;;8.25;7.15;;;12.40;99.90;;;;;;4815765;29;20090;-85
2022/11/13 10:59:55;;;;;;;10.63;7.68;;;12.20;99.90;;;;;;4801900;29;20125;-85
2022/11/13 11:02:25;;;;;;;9.57;7.55;;;12.80;99.90;;;;;;4799840;29;20154;-86
2022/11/13 11:05:04;;;;;;;7.75;6.75;;;11.90;99.90;;;;;;4814891;29;20289;-86
2022/11/13 11:07:41;;;;;;;10.60;7.78;;;11.90;99.90;;;;;;4800006;29;20054;-85
2022/11/13 11:12:14;;;;;;;10.18;7.63;;;11.70;99.90;;;;;;4800035;29;20054;-86
2022/11/13 11:13:28;;;;;;;9.52;8.00;;;11.70;99.90;;;;;;4809974;29;20050;-85
2022/11/13 11:16:07;;;;;;;10.45;7.72;;;11.70;99.90;;;;;;4815689;29;20058;-84
2022/11/13 11:18:43;;;;;;;11.55;7.75;;;11.70;99.90;;;;;;4799743;29;20078;-86
2022/11/13 11:21:19;;;;;;;8.93;7.22;;;10.50;99.90;;;;;;4814308;29;20097;-86
2022/11/13 11:23:54;;;;;;;;;;;11.70;99.90;;;;;;4818801;29;20069;-84
2022/11/13 11:26:26;;;;;;;9.23;7.50;;;11.60;99.90;;;;;;4818806;29;19935;-85
2022/11/13 11:29:12;;;;;;;9.23;7.97;;;11.60;99.90;;;;;;4815841;29;20487;-86
2022/11/13 11:31:54;;;;;;;10.82;8.68;;;11.50;99.90;;;;;;4817022;29;20143;-85
2022/11/13 11:34:32;;;;;;;8.32;7.38;;;10.70;99.90;;;;;;4800710;29;20062;-85
2022/11/13 11:37:04;;;;;;;9.73;7.72;;;11.50;99.90;;;;;;4803944;29;20165;-85
2022/11/13 11:39:53;;;;;;;8.95;7.80;;;11.50;99.90;;;;;;4803861;29;20498;-85
2022/11/13 11:42:49;;;;;;;9.88;8.30;;;11.50;99.90;;;;;;4816809;29;20062;-85
2022/11/13 11:45:26;;;;;;;10.10;8.02;;;11.50;99.90;;;;;;4814737;29;20705;-85
2022/11/13 11:47:53;;;;;;;9.95;8.38;;;11.60;99.90;;;;;;4815214;29;20065;-86
2022/11/13 11:51:01;;;;;;;10.57;8.52;;;11.60;99.90;;;;;;4805127;29;20090;-85
2022/11/13 11:53:49;;;;;;;9.98;8.48;;;11.70;99.90;;;;;;4777529;29;20058;-84
2022/11/13 11:56:27;;;;;;;10.25;8.20;;;11.70;99.90;;;;;;4816736;29;20046;-84
2022/11/13 11:59:07;;;;;;;10.40;8.65;;;11.80;99.90;;;;;;4818603;29;20512;-85
2022/11/13 12:02:05;;;;;;;9.88;8.38;;;11.70;99.90;;;;;;4817777;29;20416;-85
2022/11/13 12:05:03;;;;;;;10.27;8.18;;;11.80;99.90;;;;;;4770668;29;20423;-86
2022/11/13 12:07:48;;;;;;;8.73;7.65;;;11.90;99.90;;;;;;4801515;29;20073;-85
2022/11/13 12:10:38;;;;;;;10.88;8.18;;;11.90;99.90;;;;;;4814290;29;20054;-85
2022/11/13 12:13:22;;;;;;;9.52;7.88;;;12.00;99.90;;;;;;4832323;29;20595;-85
2022/11/13 12:15:57;;;;;;;8.23;7.00;;;12.00;99.90;;;;;;4796467;29;20050;-85
2022/11/13 12:18:24;;;;;;;8.32;7.07;;;12.10;99.90;;;;;;4817129;29;20543;-86
2022/11/13 12:21:00;;;;;;;7.97;6.85;;;12.10;99.90;;;;;;4796408;29;20057;-85
2022/11/13 12:23:48;;;;;;;8.65;6.82;;;12.10;99.90;;;;;;4817950;29;20092;-86
2022/11/13 12:26:26;;;;;;;9.48;7.20;;;12.10;99.90;;;;;;4816933;29;20062;-85
2022/11/13 12:28:55;;;;;;;9.77;6.88;;;12.10;99.90;;;;;;4799777;29;20061;-86
2022/11/13 12:31:43;;;;;;;8.27;6.97;;;12.10;99.90;;;;;;4816271;29;20140;-86
2022/11/13 12:34:27;;;;;;;8.68;7.25;;;12.20;99.90;;;;;;4815332;29;20197;-85
2022/11/13 12:36:54;;;;;;;9.57;7.68;;;12.30;99.90;;;;;;4796744;29;20055;-87
2022/11/13 12:40:02;;;;;;;8.52;7.45;;;12.40;99.90;;;;;;4798609;29;20064;-86
2022/11/13 12:42:43;;;;;;;7.93;6.72;;;12.30;99.90;;;;;;4801050;29;20061;-85
2022/11/13 12:45:15;;;;;;;8.63;6.93;;;12.30;99.90;;;;;;4813987;29;20050;-85
2022/11/13 12:47:42;;;;;;;9.52;6.90;;;11.30;99.90;;;;;;4816359;29;20065;-87
2022/11/13 12:50:31;;;;;;;9.38;7.05;;;12.30;99.90;;;;;;4813125;29;20066;-86
2022/11/13 12:53:05;;;;;;;8.07;6.45;;;12.30;99.90;;;;;;4826895;29;20062;-84
2022/11/13 12:55:36;;;;;;;8.68;7.38;;;12.30;99.90;;;;;;4786693;29;20473;-85